N23P KASE-KSJC
Flight info
| Callsign | N23P |
|---|---|
| Flight time | 1h 45m |
| Altitude | 42000 |
| Route | LINDZ1 LINDZ JNC J80 ILC KNGRY RAZRR5 |
| Aircraft | C750/M-SBDE3FGHRWXY/S |
Departure
| Time | 2026-04-27 15:19 |
|---|---|
| Airport | Aspen-Pitkin County Airport (Sardy Field) (KASE) |
Arrival
| Time | 2026-04-27 17:05 |
|---|---|
| Airport | Norman Y. Mineta San Jose International Airport (KSJC) |
| Time | Latitude | Longitude | Altitude | Speed | Heading |
|---|---|---|---|---|---|
| 2026-04-27 15:14 | 39.22264 | -106.86700 | 7754 ft | 0 kts | 73° |
| 2026-04-27 15:16 | 39.22265 | -106.86698 | 7754 ft | 1 kts | 77° |
| 2026-04-27 15:16 | 39.22242 | -106.86693 | 7756 ft | 8 kts | 197° |
| 2026-04-27 15:16 | 39.22150 | -106.86685 | 7764 ft | 20 kts | 162° |
| 2026-04-27 15:17 | 39.21980 | -106.86606 | 7781 ft | 26 kts | 159° |
| 2026-04-27 15:17 | 39.21841 | -106.86538 | 7786 ft | 17 kts | 159° |
| 2026-04-27 15:17 | 39.21735 | -106.86486 | 7800 ft | 16 kts | 161° |
| 2026-04-27 15:17 | 39.21631 | -106.86437 | 7811 ft | 15 kts | 160° |
| 2026-04-27 15:18 | 39.21551 | -106.86400 | 7816 ft | 9 kts | 160° |
| 2026-04-27 15:18 | 39.21503 | -106.86386 | 7818 ft | 6 kts | 198° |
| 2026-04-27 15:18 | 39.21492 | -106.86404 | 7819 ft | 5 kts | 240° |
| 2026-04-27 15:18 | 39.21518 | -106.86496 | 7819 ft | 25 kts | 333° |
| 2026-04-27 15:19 | 39.22021 | -106.86743 | 7774 ft | 129 kts | 339° |
| 2026-04-27 15:19 | 39.23021 | -106.87213 | 7878 ft | 171 kts | 340° |
| 2026-04-27 15:19 | 39.24248 | -106.87783 | 8202 ft | 204 kts | 341° |
| 2026-04-27 15:19 | 39.25757 | -106.88106 | 8682 ft | 228 kts | 353° |
| 2026-04-27 15:20 | 39.27279 | -106.88566 | 9725 ft | 228 kts | 330° |
| 2026-04-27 15:20 | 39.28353 | -106.90023 | 10565 ft | 224 kts | 297° |
| 2026-04-27 15:20 | 39.28794 | -106.91933 | 11472 ft | 222 kts | 279° |
| 2026-04-27 15:20 | 39.29077 | -106.93893 | 12373 ft | 222 kts | 279° |
| 2026-04-27 15:21 | 39.29380 | -106.95857 | 13270 ft | 224 kts | 280° |
| 2026-04-27 15:21 | 39.29691 | -106.97814 | 14115 ft | 226 kts | 280° |
| 2026-04-27 15:21 | 39.30007 | -106.99816 | 14890 ft | 230 kts | 280° |
| 2026-04-27 15:21 | 39.30325 | -107.01856 | 15667 ft | 233 kts | 280° |
| 2026-04-27 15:22 | 39.30752 | -107.03892 | 16384 ft | 241 kts | 293° |
| 2026-04-27 15:22 | 39.31780 | -107.05625 | 17176 ft | 246 kts | 309° |
| 2026-04-27 15:22 | 39.32944 | -107.07267 | 18006 ft | 249 kts | 309° |
| 2026-04-27 15:22 | 39.34108 | -107.08941 | 18777 ft | 252 kts | 308° |
| 2026-04-27 15:23 | 39.35288 | -107.10641 | 19558 ft | 254 kts | 308° |
| 2026-04-27 15:23 | 39.36479 | -107.12350 | 20352 ft | 257 kts | 308° |
| 2026-04-27 15:23 | 39.37654 | -107.14101 | 21135 ft | 258 kts | 302° |
| 2026-04-27 15:23 | 39.38331 | -107.16219 | 21890 ft | 255 kts | 279° |
| 2026-04-27 15:24 | 39.38346 | -107.18489 | 22740 ft | 253 kts | 259° |
| 2026-04-27 15:24 | 39.37933 | -107.20671 | 23566 ft | 254 kts | 255° |
| 2026-04-27 15:24 | 39.37496 | -107.22901 | 24226 ft | 257 kts | 256° |
| 2026-04-27 15:24 | 39.37060 | -107.25156 | 24896 ft | 259 kts | 256° |
| 2026-04-27 15:25 | 39.36618 | -107.27433 | 25557 ft | 262 kts | 256° |
| 2026-04-27 15:25 | 39.36170 | -107.29730 | 26239 ft | 265 kts | 255° |
| 2026-04-27 15:25 | 39.35716 | -107.32055 | 26919 ft | 267 kts | 256° |
| 2026-04-27 15:25 | 39.35260 | -107.34395 | 27624 ft | 270 kts | 255° |
| 2026-04-27 15:26 | 39.34797 | -107.36761 | 28321 ft | 273 kts | 255° |
| 2026-04-27 15:26 | 39.34330 | -107.39154 | 29045 ft | 276 kts | 255° |
| 2026-04-27 15:26 | 39.33863 | -107.41533 | 29824 ft | 277 kts | 255° |
| 2026-04-27 15:26 | 39.33383 | -107.43984 | 30478 ft | 279 kts | 255° |
| 2026-04-27 15:27 | 39.32910 | -107.46392 | 31106 ft | 281 kts | 255° |
| 2026-04-27 15:27 | 39.32429 | -107.48838 | 31744 ft | 282 kts | 255° |
| 2026-04-27 15:27 | 39.31945 | -107.51301 | 32384 ft | 284 kts | 255° |
| 2026-04-27 15:27 | 39.31454 | -107.53793 | 33020 ft | 286 kts | 255° |
| 2026-04-27 15:28 | 39.30961 | -107.56291 | 33661 ft | 288 kts | 255° |
| 2026-04-27 15:28 | 39.30464 | -107.58808 | 34213 ft | 291 kts | 255° |
| 2026-04-27 15:28 | 39.29961 | -107.61350 | 34727 ft | 293 kts | 255° |
| 2026-04-27 15:28 | 39.29460 | -107.63883 | 35231 ft | 296 kts | 255° |
| 2026-04-27 15:29 | 39.28948 | -107.66467 | 35726 ft | 298 kts | 255° |
| 2026-04-27 15:29 | 39.28431 | -107.69072 | 36232 ft | 301 kts | 255° |
| 2026-04-27 15:29 | 39.27907 | -107.71703 | 36722 ft | 304 kts | 255° |
| 2026-04-27 15:29 | 39.27379 | -107.74358 | 37202 ft | 307 kts | 255° |
| 2026-04-27 15:30 | 39.26846 | -107.77033 | 37713 ft | 309 kts | 255° |
| 2026-04-27 15:30 | 39.26309 | -107.79726 | 38190 ft | 311 kts | 255° |
| 2026-04-27 15:30 | 39.25765 | -107.82449 | 38620 ft | 315 kts | 255° |
| 2026-04-27 15:30 | 39.25215 | -107.85196 | 38995 ft | 318 kts | 255° |
| 2026-04-27 15:31 | 39.24659 | -107.87974 | 39353 ft | 321 kts | 255° |
| 2026-04-27 15:31 | 39.24103 | -107.90744 | 39679 ft | 325 kts | 255° |
| 2026-04-27 15:31 | 39.23531 | -107.93590 | 40011 ft | 329 kts | 255° |
| 2026-04-27 15:31 | 39.22955 | -107.96458 | 40367 ft | 332 kts | 255° |
| 2026-04-27 15:32 | 39.22370 | -107.99359 | 40708 ft | 336 kts | 254° |
| 2026-04-27 15:32 | 39.21780 | -108.02288 | 41038 ft | 339 kts | 254° |
| 2026-04-27 15:32 | 39.21182 | -108.05247 | 41377 ft | 343 kts | 254° |
| 2026-04-27 15:32 | 39.20578 | -108.08235 | 41707 ft | 346 kts | 254° |
| 2026-04-27 15:33 | 39.19963 | -108.11266 | 41909 ft | 354 kts | 254° |
| 2026-04-27 15:33 | 39.19328 | -108.14394 | 41913 ft | 366 kts | 254° |
| 2026-04-27 15:33 | 39.18672 | -108.17624 | 41911 ft | 378 kts | 254° |
| 2026-04-27 15:33 | 39.17996 | -108.20948 | 41922 ft | 389 kts | 254° |
| 2026-04-27 15:34 | 39.17299 | -108.24367 | 41928 ft | 400 kts | 254° |
| 2026-04-27 15:34 | 39.16581 | -108.27884 | 41942 ft | 410 kts | 254° |
| 2026-04-27 15:34 | 39.15842 | -108.31497 | 41934 ft | 421 kts | 254° |
| 2026-04-27 15:34 | 39.15090 | -108.35172 | 41948 ft | 431 kts | 254° |
| 2026-04-27 15:35 | 39.13532 | -108.42753 | 41976 ft | 449 kts | 254° |
| 2026-04-27 15:35 | 39.11898 | -108.50683 | 41961 ft | 466 kts | 254° |
| 2026-04-27 15:36 | 39.10201 | -108.58881 | 41958 ft | 481 kts | 254° |
| 2026-04-27 15:36 | 39.08460 | -108.67271 | 41949 ft | 483 kts | 254° |
| 2026-04-27 15:37 | 39.06712 | -108.75640 | 41877 ft | 485 kts | 254° |
| 2026-04-27 15:37 | 39.05260 | -108.84075 | 41862 ft | 485 kts | 258° |
| 2026-04-27 15:38 | 39.03997 | -108.92595 | 41876 ft | 484 kts | 258° |
| 2026-04-27 15:38 | 39.02741 | -109.01112 | 41872 ft | 485 kts | 258° |
| 2026-04-27 15:39 | 39.01476 | -109.09636 | 41873 ft | 485 kts | 258° |
| 2026-04-27 15:39 | 39.00201 | -109.18168 | 41868 ft | 485 kts | 258° |
| 2026-04-27 15:40 | 38.98925 | -109.26683 | 41869 ft | 485 kts | 258° |
| 2026-04-27 15:40 | 38.97645 | -109.35156 | 41852 ft | 485 kts | 258° |
| 2026-04-27 15:41 | 38.96354 | -109.43675 | 41855 ft | 485 kts | 258° |
| 2026-04-27 15:41 | 38.95054 | -109.52202 | 41863 ft | 486 kts | 258° |
| 2026-04-27 15:42 | 38.93751 | -109.60713 | 41858 ft | 486 kts | 258° |
| 2026-04-27 15:42 | 38.92439 | -109.69234 | 41899 ft | 485 kts | 258° |
| 2026-04-27 15:43 | 38.91130 | -109.77690 | 41905 ft | 485 kts | 258° |
| 2026-04-27 15:43 | 38.89809 | -109.86184 | 41908 ft | 485 kts | 258° |
| 2026-04-27 15:44 | 38.88481 | -109.94678 | 41902 ft | 485 kts | 257° |
| 2026-04-27 15:44 | 38.87146 | -110.03176 | 41876 ft | 485 kts | 257° |
| 2026-04-27 15:45 | 38.85807 | -110.11652 | 41859 ft | 485 kts | 257° |
| 2026-04-27 15:45 | 38.84463 | -110.20133 | 41849 ft | 483 kts | 257° |
| 2026-04-27 15:46 | 38.83113 | -110.28584 | 41847 ft | 483 kts | 257° |
| 2026-04-27 15:46 | 38.81760 | -110.37030 | 41848 ft | 483 kts | 257° |
| 2026-04-27 15:47 | 38.80400 | -110.45474 | 41845 ft | 483 kts | 257° |
| 2026-04-27 15:47 | 38.79041 | -110.53871 | 41842 ft | 484 kts | 257° |
| 2026-04-27 15:48 | 38.77665 | -110.62328 | 41849 ft | 484 kts | 257° |
| 2026-04-27 15:49 | 38.75592 | -110.75001 | 41849 ft | 484 kts | 257° |
| 2026-04-27 15:49 | 38.74202 | -110.83441 | 41837 ft | 483 kts | 257° |
| 2026-04-27 15:50 | 38.72811 | -110.91850 | 41832 ft | 483 kts | 257° |
| 2026-04-27 15:50 | 38.71416 | -111.00249 | 41840 ft | 480 kts | 257° |
| 2026-04-27 15:51 | 38.70020 | -111.08611 | 41846 ft | 481 kts | 257° |
| 2026-04-27 15:51 | 38.68610 | -111.17014 | 41843 ft | 484 kts | 257° |
| 2026-04-27 15:52 | 38.67200 | -111.25384 | 41839 ft | 484 kts | 257° |
| 2026-04-27 15:52 | 38.65774 | -111.33805 | 41840 ft | 484 kts | 256° |
| 2026-04-27 15:53 | 38.64342 | -111.42227 | 41869 ft | 484 kts | 256° |
| 2026-04-27 15:53 | 38.62904 | -111.50639 | 41865 ft | 483 kts | 257° |
| 2026-04-27 15:54 | 38.61461 | -111.59046 | 41875 ft | 485 kts | 256° |
| 2026-04-27 15:54 | 38.60012 | -111.67452 | 41879 ft | 484 kts | 256° |
| 2026-04-27 15:55 | 38.58568 | -111.75783 | 41868 ft | 483 kts | 256° |
| 2026-04-27 15:55 | 38.57106 | -111.84193 | 41873 ft | 485 kts | 256° |
| 2026-04-27 15:56 | 38.55637 | -111.92594 | 41873 ft | 484 kts | 256° |
| 2026-04-27 15:56 | 38.54161 | -112.00999 | 41879 ft | 485 kts | 256° |
| 2026-04-27 15:57 | 38.52930 | -112.07983 | 41878 ft | 484 kts | 256° |
| 2026-04-27 15:57 | 38.51444 | -112.16379 | 41874 ft | 484 kts | 256° |
| 2026-04-27 15:58 | 38.49951 | -112.24775 | 41865 ft | 485 kts | 256° |
| 2026-04-27 15:58 | 38.48457 | -112.33148 | 41878 ft | 483 kts | 256° |
| 2026-04-27 15:59 | 38.46957 | -112.41503 | 41878 ft | 483 kts | 256° |
| 2026-04-27 15:59 | 38.45450 | -112.49870 | 41878 ft | 486 kts | 256° |
| 2026-04-27 16:00 | 38.43927 | -112.58282 | 41887 ft | 487 kts | 256° |
| 2026-04-27 16:00 | 38.42398 | -112.66702 | 41901 ft | 486 kts | 256° |
| 2026-04-27 16:01 | 38.40865 | -112.75099 | 41911 ft | 486 kts | 256° |
| 2026-04-27 16:01 | 38.39323 | -112.83511 | 41934 ft | 487 kts | 256° |
| 2026-04-27 16:02 | 38.37786 | -112.91853 | 41937 ft | 485 kts | 256° |
| 2026-04-27 16:02 | 38.36249 | -113.00257 | 41932 ft | 486 kts | 257° |
| 2026-04-27 16:03 | 38.35490 | -113.08838 | 41937 ft | 488 kts | 263° |
| 2026-04-27 16:03 | 38.34827 | -113.17467 | 41925 ft | 489 kts | 263° |
| 2026-04-27 16:04 | 38.34184 | -113.26096 | 41910 ft | 489 kts | 263° |
| 2026-04-27 16:04 | 38.33526 | -113.34654 | 41898 ft | 489 kts | 263° |
| 2026-04-27 16:05 | 38.32865 | -113.43269 | 41881 ft | 489 kts | 263° |
| 2026-04-27 16:05 | 38.32191 | -113.51915 | 41870 ft | 490 kts | 263° |
| 2026-04-27 16:06 | 38.31513 | -113.60564 | 41871 ft | 491 kts | 263° |
| 2026-04-27 16:06 | 38.30826 | -113.69212 | 41878 ft | 491 kts | 262° |
| 2026-04-27 16:07 | 38.30136 | -113.77844 | 41877 ft | 490 kts | 262° |
| 2026-04-27 16:07 | 38.29441 | -113.86442 | 41879 ft | 491 kts | 262° |
| 2026-04-27 16:08 | 38.28736 | -113.95087 | 41890 ft | 491 kts | 262° |
| 2026-04-27 16:08 | 38.28024 | -114.03739 | 41890 ft | 490 kts | 262° |
| 2026-04-27 16:09 | 38.27307 | -114.12377 | 41887 ft | 491 kts | 262° |
| 2026-04-27 16:09 | 38.26217 | -114.25347 | 41892 ft | 491 kts | 262° |
| 2026-04-27 16:10 | 38.24815 | -114.42653 | 41901 ft | 492 kts | 264° |
| 2026-04-27 16:11 | 38.24001 | -114.55676 | 41896 ft | 492 kts | 264° |
| 2026-04-27 16:12 | 38.23175 | -114.68692 | 41914 ft | 495 kts | 264° |
| 2026-04-27 16:13 | 38.22324 | -114.81778 | 41910 ft | 495 kts | 264° |
| 2026-04-27 16:13 | 38.21460 | -114.94861 | 41905 ft | 495 kts | 263° |
| 2026-04-27 16:14 | 38.20287 | -115.12297 | 41903 ft | 494 kts | 263° |
| 2026-04-27 16:15 | 38.19093 | -115.29647 | 41897 ft | 494 kts | 263° |
| 2026-04-27 16:16 | 38.17870 | -115.47056 | 41889 ft | 494 kts | 263° |
| 2026-04-27 16:17 | 38.16619 | -115.64470 | 41889 ft | 495 kts | 263° |
| 2026-04-27 16:18 | 38.15343 | -115.81875 | 41884 ft | 495 kts | 263° |
| 2026-04-27 16:19 | 38.14700 | -115.90513 | 41883 ft | 494 kts | 263° |
| 2026-04-27 16:20 | 38.13379 | -116.07993 | 41910 ft | 500 kts | 263° |
| 2026-04-27 16:21 | 38.12366 | -116.21176 | 41925 ft | 500 kts | 263° |
| 2026-04-27 16:22 | 38.10990 | -116.38760 | 41913 ft | 500 kts | 263° |
| 2026-04-27 16:22 | 38.09945 | -116.51902 | 41909 ft | 500 kts | 263° |
| 2026-04-27 16:23 | 38.08881 | -116.65084 | 41915 ft | 501 kts | 263° |
| 2026-04-27 16:24 | 38.08162 | -116.73888 | 41934 ft | 501 kts | 263° |
| 2026-04-27 16:25 | 38.06706 | -116.91483 | 41979 ft | 502 kts | 263° |
| 2026-04-27 16:26 | 38.05225 | -117.09056 | 41994 ft | 502 kts | 263° |
| 2026-04-27 16:27 | 38.03709 | -117.26721 | 41899 ft | 506 kts | 263° |
| 2026-04-27 16:28 | 38.01766 | -117.48908 | 41902 ft | 506 kts | 263° |
| 2026-04-27 16:28 | 38.00331 | -117.57566 | 41884 ft | 506 kts | 251° |
| 2026-04-27 16:29 | 37.95891 | -117.69726 | 41902 ft | 507 kts | 245° |
| 2026-04-27 16:30 | 37.89787 | -117.85843 | 41910 ft | 507 kts | 245° |
| 2026-04-27 16:31 | 37.82142 | -118.05910 | 41902 ft | 504 kts | 245° |
| 2026-04-27 16:32 | 37.77565 | -118.17854 | 41926 ft | 506 kts | 245° |
| 2026-04-27 16:33 | 37.72944 | -118.29873 | 41914 ft | 507 kts | 245° |
| 2026-04-27 16:33 | 37.69853 | -118.37880 | 41916 ft | 506 kts | 245° |
| 2026-04-27 16:34 | 37.66786 | -118.45808 | 41911 ft | 506 kts | 245° |
| 2026-04-27 16:34 | 37.63691 | -118.53786 | 41932 ft | 506 kts | 245° |
| 2026-04-27 16:35 | 37.60590 | -118.61761 | 41939 ft | 506 kts | 245° |
| 2026-04-27 16:36 | 37.55931 | -118.73705 | 41969 ft | 506 kts | 245° |
| 2026-04-27 16:36 | 37.52818 | -118.81653 | 41983 ft | 505 kts | 245° |
| 2026-04-27 16:37 | 37.49693 | -118.89627 | 41548 ft | 508 kts | 245° |
| 2026-04-27 16:37 | 37.48138 | -118.93584 | 41182 ft | 502 kts | 245° |
| 2026-04-27 16:37 | 37.46593 | -118.97498 | 40797 ft | 496 kts | 245° |
| 2026-04-27 16:37 | 37.45249 | -119.01469 | 40405 ft | 491 kts | 251° |
| 2026-04-27 16:38 | 37.44271 | -119.05579 | 40057 ft | 486 kts | 255° |
| 2026-04-27 16:38 | 37.43319 | -119.09646 | 39711 ft | 483 kts | 254° |
| 2026-04-27 16:38 | 37.42348 | -119.13677 | 39386 ft | 479 kts | 254° |
| 2026-04-27 16:38 | 37.41389 | -119.17671 | 39047 ft | 476 kts | 254° |
| 2026-04-27 16:39 | 37.40448 | -119.21650 | 38720 ft | 473 kts | 254° |
| 2026-04-27 16:39 | 37.39527 | -119.25551 | 38322 ft | 470 kts | 254° |
| 2026-04-27 16:39 | 37.38586 | -119.29475 | 37916 ft | 467 kts | 254° |
| 2026-04-27 16:39 | 37.37647 | -119.33380 | 37514 ft | 464 kts | 254° |
| 2026-04-27 16:40 | 37.36703 | -119.37328 | 37138 ft | 481 kts | 254° |
| 2026-04-27 16:40 | 37.35725 | -119.41407 | 36767 ft | 491 kts | 254° |
| 2026-04-27 16:40 | 37.34736 | -119.45512 | 36407 ft | 492 kts | 254° |
| 2026-04-27 16:40 | 37.33743 | -119.49624 | 36050 ft | 491 kts | 254° |
| 2026-04-27 16:41 | 37.32755 | -119.53721 | 35684 ft | 488 kts | 254° |
| 2026-04-27 16:41 | 37.31770 | -119.57804 | 35315 ft | 489 kts | 255° |
| 2026-04-27 16:41 | 37.30783 | -119.61883 | 34968 ft | 486 kts | 255° |
| 2026-04-27 16:41 | 37.29801 | -119.65928 | 34615 ft | 484 kts | 255° |
| 2026-04-27 16:42 | 37.28819 | -119.69963 | 34263 ft | 481 kts | 255° |
| 2026-04-27 16:42 | 37.27845 | -119.73971 | 33902 ft | 480 kts | 255° |
| 2026-04-27 16:42 | 37.26872 | -119.77966 | 33498 ft | 476 kts | 255° |
| 2026-04-27 16:42 | 37.26230 | -119.80589 | 33233 ft | 474 kts | 255° |
| 2026-04-27 16:43 | 37.25261 | -119.84551 | 32616 ft | 473 kts | 255° |
| 2026-04-27 16:43 | 37.24299 | -119.88490 | 31970 ft | 469 kts | 255° |
| 2026-04-27 16:43 | 37.23342 | -119.92389 | 31339 ft | 464 kts | 255° |
| 2026-04-27 16:43 | 37.22584 | -119.96282 | 30695 ft | 456 kts | 263° |
| 2026-04-27 16:44 | 37.22178 | -120.00211 | 30090 ft | 451 kts | 265° |
| 2026-04-27 16:44 | 37.21802 | -120.04088 | 29381 ft | 446 kts | 265° |
| 2026-04-27 16:44 | 37.21399 | -120.07879 | 28701 ft | 441 kts | 264° |
| 2026-04-27 16:44 | 37.20975 | -120.11666 | 28004 ft | 436 kts | 265° |
| 2026-04-27 16:45 | 37.20569 | -120.15427 | 27342 ft | 434 kts | 265° |
| 2026-04-27 16:45 | 37.20180 | -120.19163 | 26697 ft | 429 kts | 265° |
| 2026-04-27 16:45 | 37.19789 | -120.22842 | 26064 ft | 424 kts | 265° |
| 2026-04-27 16:45 | 37.19391 | -120.26493 | 25444 ft | 419 kts | 265° |
| 2026-04-27 16:46 | 37.18998 | -120.30100 | 24840 ft | 415 kts | 265° |
| 2026-04-27 16:46 | 37.18615 | -120.33671 | 24249 ft | 411 kts | 264° |
| 2026-04-27 16:46 | 37.18237 | -120.37190 | 24052 ft | 406 kts | 264° |
| 2026-04-27 16:46 | 37.17851 | -120.40730 | 23581 ft | 407 kts | 265° |
| 2026-04-27 16:47 | 37.17461 | -120.44231 | 23020 ft | 404 kts | 264° |
| 2026-04-27 16:47 | 37.17072 | -120.47712 | 22481 ft | 401 kts | 264° |
| 2026-04-27 16:47 | 37.16690 | -120.51165 | 21941 ft | 398 kts | 264° |
| 2026-04-27 16:47 | 37.16308 | -120.54629 | 21423 ft | 400 kts | 264° |
| 2026-04-27 16:48 | 37.15925 | -120.58062 | 20905 ft | 396 kts | 264° |
| 2026-04-27 16:48 | 37.15540 | -120.61472 | 20399 ft | 393 kts | 264° |
| 2026-04-27 16:48 | 37.15160 | -120.64852 | 19906 ft | 391 kts | 264° |
| 2026-04-27 16:49 | 37.14417 | -120.71522 | 18936 ft | 386 kts | 264° |
| 2026-04-27 16:49 | 37.14039 | -120.74832 | 18461 ft | 383 kts | 264° |
| 2026-04-27 16:49 | 37.13665 | -120.78129 | 17926 ft | 380 kts | 264° |
| 2026-04-27 16:49 | 37.13312 | -120.81396 | 17389 ft | 377 kts | 264° |
| 2026-04-27 16:50 | 37.12962 | -120.84642 | 16861 ft | 373 kts | 264° |
| 2026-04-27 16:50 | 37.12602 | -120.87854 | 16339 ft | 371 kts | 264° |
| 2026-04-27 16:50 | 37.12243 | -120.91033 | 16070 ft | 365 kts | 264° |
| 2026-04-27 16:50 | 37.11884 | -120.94217 | 15849 ft | 370 kts | 263° |
| 2026-04-27 16:51 | 37.11527 | -120.97384 | 15344 ft | 364 kts | 264° |
| 2026-04-27 16:51 | 37.11178 | -121.00520 | 14848 ft | 362 kts | 264° |
| 2026-04-27 16:51 | 37.10832 | -121.03626 | 14360 ft | 359 kts | 264° |
| 2026-04-27 16:51 | 37.10483 | -121.06713 | 13877 ft | 356 kts | 264° |
| 2026-04-27 16:52 | 37.10133 | -121.09780 | 13336 ft | 354 kts | 263° |
| 2026-04-27 16:52 | 37.09866 | -121.12829 | 12774 ft | 351 kts | 270° |
| 2026-04-27 16:52 | 37.10157 | -121.15844 | 12219 ft | 346 kts | 280° |
| 2026-04-27 16:52 | 37.10534 | -121.18824 | 11616 ft | 346 kts | 279° |
| 2026-04-27 16:53 | 37.10873 | -121.21798 | 11003 ft | 343 kts | 278° |
| 2026-04-27 16:53 | 37.11193 | -121.24710 | 10396 ft | 340 kts | 279° |
| 2026-04-27 16:53 | 37.11529 | -121.27632 | 9766 ft | 336 kts | 279° |
| 2026-04-27 16:53 | 37.11865 | -121.30524 | 9099 ft | 333 kts | 279° |
| 2026-04-27 16:54 | 37.12192 | -121.33377 | 8450 ft | 330 kts | 279° |
| 2026-04-27 16:54 | 37.12512 | -121.36202 | 8003 ft | 321 kts | 279° |
| 2026-04-27 16:54 | 37.12817 | -121.38906 | 8006 ft | 299 kts | 279° |
| 2026-04-27 16:54 | 37.13095 | -121.41352 | 7924 ft | 274 kts | 279° |
| 2026-04-27 16:55 | 37.13363 | -121.43730 | 7406 ft | 275 kts | 278° |
| 2026-04-27 16:55 | 37.13625 | -121.46083 | 6896 ft | 270 kts | 278° |
| 2026-04-27 16:55 | 37.13880 | -121.48368 | 6392 ft | 266 kts | 278° |
| 2026-04-27 16:55 | 37.14134 | -121.50654 | 5853 ft | 264 kts | 278° |
| 2026-04-27 16:56 | 37.14387 | -121.52917 | 5336 ft | 259 kts | 279° |
| 2026-04-27 16:56 | 37.14632 | -121.55116 | 4982 ft | 246 kts | 279° |
| 2026-04-27 16:56 | 37.14853 | -121.57122 | 4989 ft | 220 kts | 279° |
| 2026-04-27 16:56 | 37.15054 | -121.58938 | 4980 ft | 201 kts | 279° |
| 2026-04-27 16:57 | 37.15236 | -121.60580 | 4991 ft | 185 kts | 279° |
| 2026-04-27 16:57 | 37.15410 | -121.62146 | 4993 ft | 178 kts | 279° |
| 2026-04-27 16:57 | 37.15579 | -121.63674 | 4994 ft | 176 kts | 279° |
| 2026-04-27 16:57 | 37.15750 | -121.65226 | 4750 ft | 182 kts | 279° |
| 2026-04-27 16:58 | 37.15923 | -121.66796 | 4485 ft | 181 kts | 279° |
| 2026-04-27 16:58 | 37.16095 | -121.68360 | 4224 ft | 181 kts | 279° |
| 2026-04-27 16:58 | 37.16266 | -121.69922 | 3993 ft | 179 kts | 278° |
| 2026-04-27 16:58 | 37.16626 | -121.71347 | 3973 ft | 170 kts | 302° |
| 2026-04-27 16:59 | 37.17437 | -121.72416 | 4004 ft | 171 kts | 319° |
| 2026-04-27 16:59 | 37.18343 | -121.73389 | 4015 ft | 174 kts | 318° |
| 2026-04-27 16:59 | 37.19258 | -121.74376 | 4016 ft | 174 kts | 319° |
| 2026-04-27 16:59 | 37.20171 | -121.75354 | 4023 ft | 171 kts | 319° |
| 2026-04-27 17:00 | 37.21706 | -121.77037 | 3659 ft | 181 kts | 318° |
| 2026-04-27 17:00 | 37.22936 | -121.78387 | 3595 ft | 170 kts | 318° |
| 2026-04-27 17:00 | 37.23826 | -121.79362 | 3609 ft | 166 kts | 318° |
| 2026-04-27 17:01 | 37.24678 | -121.80292 | 3449 ft | 163 kts | 319° |
| 2026-04-27 17:01 | 37.25473 | -121.81164 | 3003 ft | 144 kts | 319° |
| 2026-04-27 17:01 | 37.26212 | -121.81970 | 2598 ft | 140 kts | 319° |
| 2026-04-27 17:01 | 37.26914 | -121.82738 | 2606 ft | 129 kts | 319° |
| 2026-04-27 17:02 | 37.27614 | -121.83504 | 2716 ft | 135 kts | 319° |
| 2026-04-27 17:02 | 37.28303 | -121.84237 | 2664 ft | 121 kts | 320° |
| 2026-04-27 17:02 | 37.28954 | -121.84925 | 2421 ft | 122 kts | 319° |
| 2026-04-27 17:02 | 37.29607 | -121.85631 | 2083 ft | 125 kts | 319° |
| 2026-04-27 17:03 | 37.30256 | -121.86358 | 1793 ft | 126 kts | 318° |
| 2026-04-27 17:03 | 37.30916 | -121.87096 | 1531 ft | 127 kts | 318° |
| 2026-04-27 17:03 | 37.31567 | -121.87826 | 1329 ft | 124 kts | 319° |
| 2026-04-27 17:03 | 37.32223 | -121.88544 | 1112 ft | 125 kts | 320° |
| 2026-04-27 17:04 | 37.32885 | -121.89264 | 909 ft | 125 kts | 320° |
| 2026-04-27 17:04 | 37.33540 | -121.89982 | 716 ft | 125 kts | 320° |
| 2026-04-27 17:04 | 37.34192 | -121.90705 | 481 ft | 122 kts | 320° |
| 2026-04-27 17:04 | 37.34801 | -121.91382 | 305 ft | 114 kts | 320° |
| 2026-04-27 17:05 | 37.35386 | -121.92024 | 117 ft | 108 kts | 321° |
| 2026-04-27 17:05 | 37.35919 | -121.92603 | 60 ft | 90 kts | 318° |
| 2026-04-27 17:05 | 37.36239 | -121.92960 | 62 ft | 30 kts | 305° |
| 2026-04-27 17:05 | 37.36198 | -121.93115 | 58 ft | 9 kts | 246° |